Time;durP1;ratioP1;P1;durP2;ratioP2;P2;SDS_P1;SDS_P2;PMS_P1;PMS_P2;Temp;Humidity;BMP_temperature;BMP_pressure;BME280_temperature;BME280_humidity;BME280_pressure;Samples;Min_cycle;Max_cycle;Signal;HPM_P1;HPM_P2
2021/12/01 00:03:55;;;;;;;22.23;7.85;;;;;;;3.79;96.30;99971.34;20659153;28;20054;-74
2021/12/01 00:13:57;;;;;;;8.98;5.03;;;;;;;3.73;97.02;99954.03;20657481;28;20117;-75
2021/12/01 00:23:58;;;;;;;7.90;4.72;;;;;;;3.72;96.97;99923.81;20657175;28;20046;-75
2021/12/01 00:34:01;;;;;;;8.98;5.22;;;;;;;3.77;96.94;99896.22;20655627;28;20065;-75
2021/12/01 00:44:02;;;;;;;7.25;4.45;;;;;;;3.80;97.52;99898.81;20656918;28;20053;-75
2021/12/01 00:54:04;;;;;;;8.52;5.15;;;;;;;3.83;96.58;99887.59;20656127;28;20066;-75
2021/12/01 01:04:05;;;;;;;11.00;4.95;;;;;;;3.81;96.02;99872.06;20654196;28;20086;-75
2021/12/01 01:24:27;;;;;;;8.35;4.75;;;;;;;3.86;95.95;99854.81;20653596;28;20111;-74
2021/12/01 01:34:30;;;;;;;8.27;4.45;;;;;;;3.94;95.97;99825.50;20653241;28;20146;-76
2021/12/01 01:44:31;;;;;;;7.55;4.10;;;;;;;4.07;95.03;99837.59;20654329;28;20061;-76
2021/12/01 01:54:33;;;;;;;11.07;4.88;;;;;;;3.98;96.01;99824.66;20652477;28;20054;-76
2021/12/01 02:04:34;;;;;;;10.02;4.72;;;;;;;3.98;96.28;99822.06;20651866;28;20046;-76
2021/12/01 02:14:36;;;;;;;13.00;4.40;;;;;;;4.00;95.83;99800.44;20652492;28;20503;-76
2021/12/01 02:24:37;;;;;;;8.38;3.30;;;;;;;4.05;95.64;99766.78;20653176;28;20109;-78
2021/12/01 02:34:41;;;;;;;7.78;3.47;;;;;;;4.10;94.76;99749.50;20654774;28;20050;-76
2021/12/01 02:44:43;;;;;;;5.45;3.00;;;;;;;4.24;93.82;99716.69;20648310;28;20101;-75
2021/12/01 02:54:45;;;;;;;9.40;3.10;;;;;;;4.29;93.60;99706.31;20664261;28;20054;-75
2021/12/01 03:04:46;;;;;;;5.22;2.30;;;;;;;4.38;93.15;99691.63;20663051;28;20369;-75
2021/12/01 03:14:50;;;;;;;7.55;2.42;;;;;;;4.58;92.08;99683.78;20662942;28;20079;-75
2021/12/01 03:24:53;;;;;;;5.97;2.57;;;;;;;4.52;92.20;99670.84;20663644;28;20487;-75
2021/12/01 03:34:55;;;;;;;7.55;2.50;;;;;;;4.51;92.98;99652.72;20660318;28;20062;-75
2021/12/01 03:44:56;;;;;;;5.72;2.42;;;;;;;4.48;92.97;99621.63;20661636;28;20054;-75
2021/12/01 03:54:59;;;;;;;7.03;2.40;;;;;;;4.61;92.17;99605.16;20664111;28;20065;-75
2021/12/01 04:05:00;;;;;;;5.55;2.30;;;;;;;4.69;92.54;99573.97;20659338;28;20054;-75
2021/12/01 04:15:03;;;;;;;5.32;2.53;;;;;;;4.69;91.38;99546.31;20658833;28;20058;-75
2021/12/01 04:25:06;;;;;;;4.97;2.00;;;;;;;4.84;90.77;99515.13;20657353;28;20502;-75
2021/12/01 04:35:08;;;;;;;4.63;1.92;;;;;;;4.77;91.59;99515.16;20658013;28;20100;-75
2021/12/01 04:45:14;;;;;;;4.75;1.58;;;;;;;4.96;91.14;99500.34;20656273;28;20054;-76
2021/12/01 04:55:16;;;;;;;3.70;1.40;;;;;;;5.08;89.93;99474.31;20654499;28;20112;-75
2021/12/01 05:05:17;;;;;;;3.55;1.40;;;;;;;5.12;89.78;99458.66;20655179;28;20562;-76
2021/12/01 05:15:19;;;;;;;5.75;1.63;;;;;;;5.17;89.24;99427.50;20654252;28;20050;-76
2021/12/01 05:25:21;;;;;;;3.63;1.42;;;;;;;5.25;88.88;99393.69;20654618;28;20069;-75
2021/12/01 05:35:22;;;;;;;3.95;1.30;;;;;;;5.33;88.64;99363.34;20653005;28;20123;-76
2021/12/01 05:45:24;;;;;;;2.95;1.10;;;;;;;5.47;88.19;99371.84;20651895;28;20435;-75
2021/12/01 05:55:26;;;;;;;4.05;0.80;;;;;;;5.56;88.27;99357.88;20653228;28;20116;-75
2021/12/01 06:05:27;;;;;;;5.03;1.10;;;;;;;5.49;89.85;99343.25;20652310;28;20050;-76
2021/12/01 06:15:31;;;;;;;2.35;0.90;;;;;;;5.54;89.07;99328.47;20665682;28;20105;-76
2021/12/01 06:25:33;;;;;;;2.42;0.90;;;;;;;5.60;89.68;99310.22;20667086;28;20459;-76
2021/12/01 06:35:34;;;;;;;4.18;1.10;;;;;;;5.60;89.74;99281.66;20665394;28;20507;-76
2021/12/01 06:45:36;;;;;;;2.05;0.90;;;;;;;5.68;89.70;99264.22;20666413;28;20089;-76
2021/12/01 06:55:37;;;;;;;3.10;0.80;;;;;;;5.60;91.05;99250.50;20664035;28;20054;-75
2021/12/01 07:05:39;;;;;;;2.17;0.70;;;;;;;5.66;91.75;99221.84;20663838;28;20046;-75
2021/12/01 07:15:41;;;;;;;5.82;1.20;;;;;;;5.69;92.18;99205.34;20664966;28;20066;-75
2021/12/01 07:25:42;;;;;;;3.72;1.00;;;;;;;5.72;92.15;99181.94;20662646;28;20101;-76
2021/12/01 07:35:44;;;;;;;2.90;1.13;;;;;;;5.78;91.42;99161.91;20662116;28;20467;-76
2021/12/01 07:45:45;;;;;;;3.63;1.20;;;;;;;5.78;91.96;99137.69;20661261;28;20077;-75
2021/12/01 07:55:48;;;;;;;1.25;0.63;;;;;;;5.95;90.30;99116.66;20660979;28;20112;-76
2021/12/01 08:05:49;;;;;;;1.73;0.50;;;;;;;5.98;90.50;99101.00;20653676;28;20105;-76
2021/12/01 08:15:51;;;;;;;3.60;1.58;;;;;;;6.13;91.36;99090.31;20651988;28;20058;-76
2021/12/01 08:25:53;;;;;;;0.98;0.50;;;;;;;6.01;92.95;99069.78;20650411;28;20047;-76
2021/12/01 08:35:54;;;;;;;1.75;0.60;;;;;;;6.16;91.71;99051.31;20644629;28;20466;-76
2021/12/01 08:45:57;;;;;;;2.28;0.63;;;;;;;6.34;91.04;99030.16;20646505;28;20606;-75
2021/12/01 08:55:59;;;;;;;2.20;0.45;;;;;;;6.39;89.55;99007.50;20646042;28;20058;-76
2021/12/01 09:06:01;;;;;;;1.75;0.52;;;;;;;6.66;86.63;98997.41;20651658;28;20885;-79
2021/12/01 09:16:03;;;;;;;1.77;0.40;;;;;;;6.99;83.92;98974.94;20664491;28;20507;-82
2021/12/01 09:26:05;;;;;;;0.95;0.40;;;;;;;7.20;82.66;98955.34;20669906;28;20054;-82
2021/12/01 09:36:08;;;;;;;1.00;0.40;;;;;;;7.28;82.47;98923.91;20657197;28;20499;-80
2021/12/01 09:46:10;;;;;;;0.85;0.38;;;;;;;7.35;82.75;98915.91;20671316;28;20114;-79
2021/12/01 09:56:12;;;;;;;1.92;0.57;;;;;;;7.49;83.96;98915.53;20672902;28;20054;-79
2021/12/01 10:06:17;;;;;;;1.55;0.50;;;;;;;7.41;85.55;98884.47;20666118;28;20100;-79
2021/12/01 10:16:19;;;;;;;2.70;0.40;;;;;;;7.40;87.39;98856.75;20664778;28;20050;-79
2021/12/01 10:26:24;;;;;;;1.50;0.50;;;;;;;7.42;89.09;98826.28;20661943;28;20149;-77
2021/12/01 10:36:26;;;;;;;2.03;0.60;;;;;;;7.56;88.82;98799.00;20662972;28;20050;-78
2021/12/01 10:46:28;;;;;;;1.95;0.63;;;;;;;7.67;89.41;98789.16;20662492;28;20059;-78
2021/12/01 10:56:30;;;;;;;4.35;1.40;;;;;;;7.61;89.96;98782.34;20659470;28;20089;-76
2021/12/01 11:06:38;;;;;;;2.42;0.75;;;;;;;7.60;90.11;98748.53;20657039;28;20050;-75
2021/12/01 11:16:41;;;;;;;1.42;0.73;;;;;;;7.59;91.11;98719.03;20651741;28;20601;-76
2021/12/01 11:26:44;;;;;;;6.13;2.00;;;;;;;7.91;90.54;98715.44;20654936;28;20047;-76
2021/12/01 11:37:06;;;;;;;1.95;0.82;;;;;;;7.73;91.20;98674.31;20647635;28;20119;-77
2021/12/01 11:47:08;;;;;;;2.50;0.95;;;;;;;7.82;91.46;98653.19;20656948;28;20050;-76
2021/12/01 11:57:10;;;;;;;5.00;0.80;;;;;;;8.05;91.21;98625.50;20654604;28;20051;-77
2021/12/01 12:07:13;;;;;;;2.95;0.90;;;;;;;7.97;90.96;98615.34;20652770;28;20070;-77
2021/12/01 12:17:35;;;;;;;2.05;0.82;;;;;;;7.91;91.20;98616.41;20651435;28;20101;-76
2021/12/01 12:27:42;;;;;;;1.45;0.57;;;;;;;7.91;92.07;98598.16;20654716;28;20388;-76
2021/12/01 12:37:44;;;;;;;4.32;1.10;;;;;;;7.89;92.46;98594.75;20699568;28;20108;-73
2021/12/01 12:47:49;;;;;;;2.33;1.00;;;;;;;7.88;92.51;98582.63;20702340;28;20199;-74
2021/12/01 12:58:15;;;;;;;;;;;;;;;7.80;93.20;98549.91;20649900;28;20079;-73
2021/12/01 13:08:43;;;;;;;1.80;0.70;;;;;;;7.87;93.03;98527.97;20640932;28;20389;-74
2021/12/01 13:18:48;;;;;;;4.95;1.10;;;;;;;7.85;93.54;98522.78;20641480;28;20108;-74
2021/12/01 13:29:05;;;;;;;2.93;0.87;;;;;;;7.70;94.51;98510.31;20647850;28;20591;-74
2021/12/01 13:39:12;;;;;;;3.83;1.00;;;;;;;7.64;95.07;98506.16;20641139;28;20058;-75
2021/12/01 13:49:14;;;;;;;2.83;1.42;;;;;;;7.61;95.67;98495.00;20646876;28;20129;-74
2021/12/01 13:59:16;;;;;;;3.25;1.08;;;;;;;7.49;96.14;98491.06;20646864;28;20054;-75
2021/12/01 14:09:29;;;;;;;2.20;0.82;;;;;;;7.54;94.78;98488.31;20645215;28;20740;-74
2021/12/01 14:19:33;;;;;;;3.72;1.50;;;;;;;7.60;94.15;98490.69;20646440;28;20097;-74
2021/12/01 14:29:37;;;;;;;4.50;0.67;;;;;;;7.55;94.03;98490.84;20649207;28;20492;-75
2021/12/01 14:39:40;;;;;;;1.60;0.60;;;;;;;7.55;93.60;98495.22;20658898;28;20065;-75
2021/12/01 14:49:44;;;;;;;2.55;0.90;;;;;;;7.61;92.67;98480.22;20658552;28;20069;-75
2021/12/01 14:59:55;;;;;;;2.08;0.85;;;;;;;7.63;92.16;98488.84;20659534;28;20062;-74
2021/12/01 15:10:10;;;;;;;;;;;;;;;7.61;92.41;98481.97;20656917;28;20120;-75
2021/12/01 15:20:12;;;;;;;2.70;0.90;;;;;;;7.62;91.84;98475.88;20657026;28;19990;-76
2021/12/01 15:30:13;;;;;;;3.00;0.60;;;;;;;7.68;91.49;98483.47;20655508;28;20050;-74
2021/12/01 15:40:14;;;;;;;3.00;0.70;;;;;;;7.61;92.42;98495.00;20655828;28;20050;-75
2021/12/01 15:50:22;;;;;;;2.28;0.88;;;;;;;7.56;93.38;98512.53;20592070;28;20058;-77
2021/12/01 16:00:26;;;;;;;2.15;0.70;;;;;;;7.59;92.58;98518.50;20582597;28;20050;-76
2021/12/01 16:10:29;;;;;;;1.73;0.63;;;;;;;7.55;91.64;98518.66;20578388;28;20505;-75
2021/12/01 16:20:36;;;;;;;1.98;0.90;;;;;;;7.65;90.31;98523.47;20652609;28;20094;-75
2021/12/01 16:30:38;;;;;;;2.35;0.77;;;;;;;7.71;90.36;98543.25;20650607;28;20042;-74
2021/12/01 16:40:42;;;;;;;2.67;1.00;;;;;;;7.56;90.84;98559.41;20651670;28;20500;-77
2021/12/01 16:50:44;;;;;;;2.30;0.80;;;;;;;7.37;91.55;98560.00;20649497;28;20186;-75
2021/12/01 17:00:46;;;;;;;3.47;1.75;;;;;;;7.37;91.68;98560.00;20664448;28;20074;-74
2021/12/01 17:10:47;;;;;;;2.95;1.20;;;;;;;7.23;91.85;98567.41;20636614;28;20059;-76
2021/12/01 17:20:50;;;;;;;2.95;1.30;;;;;;;7.09;91.44;98585.19;20645429;28;20047;-74
2021/12/01 17:30:58;;;;;;;4.10;1.35;;;;;;;7.20;91.05;98603.94;20643950;28;20518;-74
2021/12/01 17:41:01;;;;;;;3.70;1.52;;;;;;;7.16;89.94;98604.94;19766891;28;10000946;-74
2021/12/01 17:51:03;;;;;;;3.33;1.23;;;;;;;7.23;89.53;98632.47;20646123;28;20058;-74
2021/12/01 18:01:12;;;;;;;6.43;2.83;;;;;;;7.29;89.90;98637.50;20653834;28;20050;-74
2021/12/01 18:11:16;;;;;;;5.63;2.00;;;;;;;7.32;89.25;98642.59;20671103;28;20145;-74
2021/12/01 18:21:17;;;;;;;3.50;1.30;;;;;;;7.34;88.42;98653.84;20661185;28;20053;-74
2021/12/01 18:31:38;;;;;;;4.68;1.45;;;;;;;7.41;87.92;98668.34;20658872;28;20055;-74
2021/12/01 18:41:40;;;;;;;6.43;2.03;;;;;;;7.39;87.90;98675.38;20654362;28;20487;-74
2021/12/01 18:51:41;;;;;;;6.05;3.00;;;;;;;7.28;88.21;98673.97;20652437;28;20064;-73
2021/12/01 19:01:43;;;;;;;4.53;2.22;;;;;;;7.36;87.33;98692.84;20680227;28;20093;-73
2021/12/01 19:11:45;;;;;;;6.93;3.13;;;;;;;7.34;88.52;98689.44;20720405;28;20451;-73
2021/12/01 19:21:47;;;;;;;5.45;1.85;;;;;;;7.31;89.51;98706.00;20654297;28;20050;-74
2021/12/01 19:31:50;;;;;;;5.30;1.80;;;;;;;6.98;93.18;98732.97;20652794;28;20054;-76
2021/12/01 19:41:51;;;;;;;4.47;1.50;;;;;;;6.72;94.28;98731.13;20654063;28;20570;-77
2021/12/01 19:51:53;;;;;;;4.10;1.15;;;;;;;6.68;94.04;98740.72;20655110;28;20120;-77
2021/12/01 20:01:55;;;;;;;4.85;1.58;;;;;;;6.53;94.28;98736.78;20655120;28;20054;-77
2021/12/01 20:12:03;;;;;;;5.32;1.30;;;;;;;6.42;94.05;98738.81;20661160;28;20511;-77
2021/12/01 20:22:06;;;;;;;5.40;2.30;;;;;;;6.33;94.59;98739.06;20652538;28;20047;-77
2021/12/01 20:32:08;;;;;;;4.38;1.90;;;;;;;6.47;96.05;98754.28;20650426;28;20054;-76
2021/12/01 20:42:10;;;;;;;6.05;3.05;;;;;;;6.55;96.05;98767.94;20650142;28;20058;-77
2021/12/01 20:52:47;;;;;;;5.50;2.30;;;;;;;6.49;95.37;98771.56;20648493;28;20058;-76
2021/12/01 21:02:49;;;;;;;4.40;1.88;;;;;;;6.50;95.17;98782.81;20648857;28;20055;-77
2021/12/01 21:12:50;;;;;;;23.98;10.98;;;;;;;6.53;95.28;98798.34;20638845;28;20058;-77
2021/12/01 21:22:54;;;;;;;5.55;3.17;;;;;;;6.43;95.26;98821.97;20648035;28;20702;-76
2021/12/01 21:32:55;;;;;;;6.97;3.30;;;;;;;6.45;95.03;98821.06;20646515;28;20104;-76
2021/12/01 21:42:57;;;;;;;8.52;3.20;;;;;;;6.25;94.57;98843.19;20653093;28;20047;-76
2021/12/01 21:53:05;;;;;;;3.00;1.17;;;;;;;5.99;94.53;98824.72;20663214;28;20050;-76
2021/12/01 22:03:07;;;;;;;2.65;1.40;;;;;;;5.63;96.05;98835.88;20660453;28;20058;-74
2021/12/01 22:13:09;;;;;;;7.00;3.65;;;;;;;5.36;96.62;98863.22;20661903;28;20423;-75
2021/12/01 22:23:13;;;;;;;5.90;3.50;;;;;;;5.48;97.41;98872.53;20660929;28;20046;-73
2021/12/01 22:33:15;;;;;;;6.13;2.77;;;;;;;5.57;96.57;98881.88;20659366;28;20058;-74
2021/12/01 22:43:19;;;;;;;7.45;2.80;;;;;;;5.44;97.39;98881.25;20659841;28;20098;-74
2021/12/01 22:53:21;;;;;;;4.78;2.13;;;;;;;5.14;97.65;98867.13;20657864;28;20069;-74
2021/12/01 23:03:29;;;;;;;6.43;2.72;;;;;;;4.99;97.67;98841.47;20658478;28;20054;-76
2021/12/01 23:13:31;;;;;;;17.60;6.45;;;;;;;4.89;97.80;98839.03;20661893;28;20054;-74
2021/12/01 23:33:37;;;;;;;;;;;;;;;5.03;97.60;98843.97;20662754;28;20260;-74
2021/12/01 23:43:42;;;;;;;8.70;2.88;;;;;;;5.09;97.12;98848.19;20662006;28;19921;-74
2021/12/01 23:53:49;;;;;;;30.50;9.93;;;;;;;5.04;96.53;98837.06;20660890;28;20054;-74
